createdAt,value
2018-07-27T00:00:09.913Z,8.13
2018-07-27T00:02:37.573Z,6.40
2018-07-27T00:05:05.388Z,6.80
2018-07-27T00:07:33.029Z,6.67
2018-07-27T00:10:00.704Z,6.40
2018-07-27T00:12:28.588Z,6.60
2018-07-27T00:14:56.320Z,6.93
2018-07-27T00:17:23.914Z,5.97
2018-07-27T00:19:51.539Z,7.50
2018-07-27T00:22:19.814Z,5.77
2018-07-27T00:24:47.440Z,7.10
2018-07-27T00:27:15.090Z,6.07
2018-07-27T00:29:42.721Z,8.07
2018-07-27T00:32:10.361Z,6.90
2018-07-27T00:34:37.896Z,6.73
2018-07-27T00:37:05.564Z,7.57
2018-07-27T00:39:33.246Z,7.33
2018-07-27T00:42:00.917Z,8.13
2018-07-27T00:44:28.571Z,7.93
2018-07-27T00:46:56.208Z,7.53
2018-07-27T00:49:23.805Z,8.53
2018-07-27T00:51:51.549Z,8.57
2018-07-27T00:54:19.236Z,8.53
2018-07-27T00:56:46.866Z,8.60
2018-07-27T00:59:14.478Z,8.53
2018-07-27T01:01:42.087Z,8.27
2018-07-27T01:04:09.627Z,7.80
2018-07-27T01:06:37.322Z,8.53
2018-07-27T01:09:07.195Z,8.73
2018-07-27T01:11:34.869Z,9.43
2018-07-27T01:14:02.556Z,8.60
2018-07-27T01:16:30.224Z,8.50
2018-07-27T01:18:57.834Z,9.07
2018-07-27T01:21:25.490Z,8.70
2018-07-27T01:23:53.112Z,8.07
2018-07-27T01:26:20.798Z,8.53
2018-07-27T01:28:48.460Z,8.10
2018-07-27T01:31:16.130Z,9.10
2018-07-27T01:33:46.287Z,8.80
2018-07-27T01:36:13.890Z,8.80
2018-07-27T01:38:41.530Z,8.63
2018-07-27T01:41:09.167Z,8.20
2018-07-27T01:43:36.809Z,8.10
2018-07-27T01:46:04.525Z,8.93
2018-07-27T01:48:32.139Z,7.93
2018-07-27T01:51:00.733Z,8.70
2018-07-27T01:53:29.018Z,8.23
2018-07-27T01:55:56.642Z,8.00
2018-07-27T01:58:26.032Z,9.00
2018-07-27T02:00:53.661Z,8.50
2018-07-27T02:03:21.266Z,9.67
2018-07-27T02:05:49.839Z,8.00
2018-07-27T02:08:17.463Z,9.07
2018-07-27T02:10:45.778Z,9.30
2018-07-27T02:13:13.337Z,8.83
2018-07-27T02:15:40.957Z,8.60
2018-07-27T02:18:08.576Z,8.90
2018-07-27T02:20:36.806Z,7.83
2018-07-27T02:23:04.412Z,8.30
2018-07-27T02:25:32.059Z,8.77
2018-07-27T02:27:59.662Z,9.47
2018-07-27T02:30:27.674Z,9.00
2018-07-27T02:32:55.260Z,7.80
2018-07-27T02:35:22.960Z,8.17
2018-07-27T02:37:50.505Z,7.97
2018-07-27T02:40:18.190Z,8.00
2018-07-27T02:42:45.721Z,8.73
2018-07-27T02:45:13.301Z,9.50
2018-07-27T02:47:45.200Z,8.20
2018-07-27T02:50:12.866Z,8.80
2018-07-27T02:52:40.453Z,9.10
2018-07-27T02:55:08.173Z,9.03
2018-07-27T02:57:36.290Z,8.97
2018-07-27T03:00:04.194Z,8.07
2018-07-27T03:02:31.781Z,8.20
2018-07-27T03:04:59.369Z,7.83
2018-07-27T03:07:27.009Z,8.40
2018-07-27T03:09:54.613Z,7.90
2018-07-27T03:12:22.242Z,7.80
2018-07-27T03:14:49.881Z,8.73
2018-07-27T03:17:17.492Z,8.73
2018-07-27T03:19:45.073Z,7.53
2018-07-27T03:22:12.519Z,8.30
2018-07-27T03:24:40.214Z,8.50
2018-07-27T03:27:07.816Z,7.23
2018-07-27T03:29:35.448Z,8.67
2018-07-27T03:32:03.120Z,8.60
2018-07-27T03:34:30.698Z,9.63
2018-07-27T03:37:04.944Z,8.03
2018-07-27T03:39:32.513Z,8.20
2018-07-27T03:42:00.203Z,8.10
2018-07-27T03:44:27.858Z,8.40
2018-07-27T03:46:55.509Z,8.87
2018-07-27T03:49:23.110Z,8.77
2018-07-27T03:51:50.761Z,8.60
2018-07-27T03:54:20.209Z,9.27
2018-07-27T03:56:47.908Z,9.20
2018-07-27T03:59:15.561Z,8.90
2018-07-27T04:01:43.264Z,9.50
2018-07-27T04:04:10.878Z,8.70
2018-07-27T04:06:38.507Z,8.00
2018-07-27T04:09:07.053Z,7.30
2018-07-27T04:11:35.334Z,8.83
2018-07-27T04:14:03.049Z,8.60
2018-07-27T04:16:30.707Z,9.37
2018-07-27T04:18:58.386Z,8.57
2018-07-27T04:21:26.050Z,9.87
2018-07-27T04:23:54.390Z,9.70
2018-07-27T04:26:22.150Z,9.37
2018-07-27T04:28:49.765Z,9.17
2018-07-27T04:31:17.513Z,9.13
2018-07-27T04:33:45.157Z,10.10
2018-07-27T04:36:12.760Z,9.93
2018-07-27T04:38:40.403Z,9.30
2018-07-27T04:41:08.087Z,9.13
2018-07-27T04:43:35.740Z,10.03
2018-07-27T04:46:04.097Z,8.50
2018-07-27T04:48:31.793Z,10.13
2018-07-27T04:50:59.423Z,9.53
2018-07-27T04:53:27.118Z,9.43
2018-07-27T04:55:54.911Z,9.40
2018-07-27T04:58:24.378Z,10.87
2018-07-27T05:00:52.040Z,10.30
2018-07-27T05:03:19.754Z,9.83
2018-07-27T05:05:47.354Z,9.47
2018-07-27T05:08:15.319Z,9.53
2018-07-27T05:10:47.399Z,9.40
2018-07-27T05:13:15.228Z,9.17
2018-07-27T05:15:43.667Z,9.80
2018-07-27T05:18:11.261Z,8.60
2018-07-27T05:20:38.825Z,9.53
2018-07-27T05:23:06.388Z,9.63
2018-07-27T05:25:34.186Z,10.70
2018-07-27T05:28:01.788Z,10.97
2018-07-27T05:30:29.400Z,11.90
2018-07-27T05:32:57.037Z,11.13
2018-07-27T05:35:25.344Z,11.37
2018-07-27T05:37:52.932Z,11.30
2018-07-27T05:40:20.621Z,11.03
2018-07-27T05:42:48.222Z,12.27
2018-07-27T05:45:15.870Z,11.03
2018-07-27T05:47:43.972Z,11.00
2018-07-27T05:50:11.615Z,11.83
2018-07-27T05:52:39.191Z,11.23
2018-07-27T05:55:06.845Z,11.63
2018-07-27T05:57:34.497Z,13.10
2018-07-27T06:00:02.149Z,13.10
2018-07-27T06:02:30.477Z,12.30
2018-07-27T06:04:58.054Z,12.43
2018-07-27T06:07:25.650Z,12.50
2018-07-27T06:09:53.354Z,12.20
2018-07-27T06:12:20.928Z,12.97
2018-07-27T06:14:48.518Z,12.70
2018-07-27T06:17:16.133Z,12.77
2018-07-27T06:19:43.740Z,12.43
2018-07-27T06:22:11.367Z,12.57
2018-07-27T06:24:46.604Z,12.40
2018-07-27T06:27:14.186Z,11.87
2018-07-27T06:29:42.629Z,12.23
2018-07-27T06:32:10.641Z,12.33
2018-07-27T06:34:39.080Z,12.17
2018-07-27T06:37:06.733Z,12.57
2018-07-27T06:39:34.329Z,12.10
2018-07-27T06:42:02.009Z,11.37
2018-07-27T06:44:29.657Z,11.80
2018-07-27T06:46:57.340Z,13.23
2018-07-27T06:49:25.512Z,12.83
2018-07-27T06:51:53.157Z,11.07
2018-07-27T06:54:21.639Z,12.20
2018-07-27T06:56:50.093Z,13.30
2018-07-27T06:59:17.711Z,12.50
2018-07-27T07:01:52.028Z,12.47
2018-07-27T07:04:20.633Z,13.13
2018-07-27T07:06:48.269Z,12.70
2018-07-27T07:09:16.795Z,12.77
2018-07-27T07:11:44.412Z,12.83
2018-07-27T07:14:12.085Z,13.73
2018-07-27T07:16:40.088Z,13.17
2018-07-27T07:19:08.888Z,13.40
2018-07-27T07:21:36.719Z,13.43
2018-07-27T07:24:04.602Z,13.50
2018-07-27T07:26:32.272Z,13.53
2018-07-27T07:28:59.995Z,12.40
2018-07-27T07:31:27.728Z,15.03
2018-07-27T07:33:55.396Z,13.57
2018-07-27T07:36:23.673Z,13.53
2018-07-27T07:38:51.378Z,11.33
2018-07-27T07:41:19.033Z,12.33
2018-07-27T07:43:46.771Z,13.77
2018-07-27T07:46:14.399Z,11.90
2018-07-27T07:48:42.021Z,11.93
2018-07-27T07:51:09.751Z,12.13
2018-07-27T07:53:37.399Z,12.50
2018-07-27T07:56:05.092Z,12.33
2018-07-27T07:58:33.215Z,12.87
2018-07-27T08:01:01.518Z,12.87
2018-07-27T08:03:29.133Z,12.73
2018-07-27T08:05:56.785Z,12.37
2018-07-27T08:08:24.468Z,10.90
2018-07-27T08:10:52.182Z,12.20
2018-07-27T08:13:19.853Z,11.77
2018-07-27T08:15:47.490Z,10.63
2018-07-27T08:18:15.154Z,10.90
2018-07-27T08:20:42.755Z,10.10
2018-07-27T08:23:10.509Z,11.60
2018-07-27T08:26:07.394Z,9.63
2018-07-27T08:28:41.395Z,11.00
2018-07-27T08:31:09.084Z,10.50
2018-07-27T08:33:36.732Z,9.70
2018-07-27T08:36:04.419Z,9.83
2018-07-27T08:38:32.015Z,10.97
2018-07-27T08:40:59.673Z,9.83
2018-07-27T08:43:27.389Z,10.00
2018-07-27T08:45:55.101Z,9.00
2018-07-27T08:48:22.790Z,9.80
2018-07-27T08:50:50.484Z,10.27
2018-07-27T08:53:18.160Z,9.80
2018-07-27T08:55:45.825Z,9.10
2018-07-27T08:58:13.514Z,8.77
2018-07-27T09:00:50.897Z,8.63
2018-07-27T09:03:18.539Z,9.20
2018-07-27T09:06:03.061Z,8.40
2018-07-27T09:08:47.027Z,7.60
2018-07-27T09:11:18.628Z,5.57
2018-07-27T09:13:59.897Z,6.20
2018-07-27T09:16:28.823Z,5.70
2018-07-27T09:36:13.876Z,6.40
2018-07-27T09:38:42.790Z,6.00
2018-07-27T09:41:11.600Z,5.93
2018-07-27T09:43:40.084Z,5.87
2018-07-27T09:46:09.738Z,5.67
2018-07-27T09:48:38.440Z,7.10
2018-07-27T09:51:07.279Z,6.30
2018-07-27T09:53:36.232Z,6.27
2018-07-27T09:56:05.937Z,6.27
2018-07-27T09:58:35.024Z,5.73
2018-07-27T10:01:07.616Z,6.90
2018-07-27T10:03:50.322Z,6.57
2018-07-27T10:06:28.309Z,10.10
2018-07-27T10:09:02.760Z,6.33
2018-07-27T10:11:30.743Z,6.63
2018-07-27T10:13:58.437Z,6.07
2018-07-27T10:16:26.100Z,6.30
2018-07-27T10:36:10.944Z,6.43
2018-07-27T10:38:39.613Z,6.30
2018-07-27T10:41:08.441Z,6.03
2018-07-27T10:43:41.181Z,6.57
2018-07-27T10:48:36.014Z,6.53
2018-07-27T10:51:16.521Z,6.43
2018-07-27T10:53:46.949Z,6.43
2018-07-27T10:56:24.288Z,6.10
2018-07-27T10:58:52.108Z,5.57
2018-07-27T11:01:19.764Z,5.73
2018-07-27T11:03:47.391Z,5.93
2018-07-27T11:06:23.494Z,5.70
2018-07-27T11:08:51.273Z,5.60
2018-07-27T11:11:19.026Z,6.47
2018-07-27T11:13:47.403Z,5.77
2018-07-27T11:16:21.940Z,6.00
2018-07-27T11:18:49.855Z,5.50
2018-07-27T11:21:17.681Z,5.70
2018-07-27T11:23:45.514Z,5.60
2018-07-27T11:26:13.481Z,4.20
2018-07-27T11:28:41.451Z,4.80
2018-07-27T11:31:09.333Z,4.80
2018-07-27T11:33:37.552Z,4.27
2018-07-27T11:36:05.234Z,4.93
2018-07-27T11:38:32.886Z,4.90
2018-07-27T11:41:00.571Z,4.20
2018-07-27T11:43:28.219Z,4.90
2018-07-27T11:45:55.963Z,4.20
2018-07-27T11:48:23.663Z,5.00
2018-07-27T11:50:51.293Z,5.00
2018-07-27T11:53:19.013Z,4.67
2018-07-27T11:55:46.716Z,4.63
2018-07-27T11:58:14.327Z,4.70
2018-07-27T12:00:41.974Z,5.10
2018-07-27T12:03:09.636Z,5.13
2018-07-27T12:05:37.259Z,4.87
2018-07-27T12:08:04.947Z,5.37
2018-07-27T12:10:32.567Z,4.73
2018-07-27T12:13:00.144Z,4.60
2018-07-27T12:15:27.760Z,4.77
2018-07-27T12:17:55.364Z,5.30
2018-07-27T12:20:22.999Z,5.20
2018-07-27T12:22:50.588Z,5.57
2018-07-27T12:25:18.208Z,4.83
2018-07-27T12:27:45.797Z,5.47
2018-07-27T12:30:13.395Z,4.97
2018-07-27T12:32:41.104Z,4.90
2018-07-27T12:35:08.724Z,5.20
2018-07-27T12:37:36.332Z,5.37
2018-07-27T12:40:04.062Z,5.40
2018-07-27T12:42:31.753Z,5.63
2018-07-27T12:44:59.453Z,5.73
2018-07-27T12:47:27.050Z,5.80
2018-07-27T12:49:54.612Z,5.70
2018-07-27T12:52:22.246Z,5.77
2018-07-27T12:54:49.901Z,5.70
2018-07-27T12:57:17.563Z,5.00
2018-07-27T12:59:45.160Z,5.40
2018-07-27T13:02:12.775Z,5.00
2018-07-27T13:04:40.352Z,5.60
2018-07-27T13:07:07.951Z,5.20
2018-07-27T13:09:35.559Z,5.77
2018-07-27T13:12:03.159Z,5.20
2018-07-27T13:14:30.784Z,5.10
2018-07-27T13:16:58.398Z,5.23
2018-07-27T13:19:26.094Z,5.83
2018-07-27T13:22:05.752Z,5.50
2018-07-27T13:25:01.706Z,5.17
2018-07-27T13:27:01.344Z,5.83
2018-07-27T13:29:28.983Z,6.07
2018-07-27T13:31:57.793Z,5.77
2018-07-27T13:34:31.612Z,5.17
2018-07-27T13:36:59.291Z,5.30
2018-07-27T13:39:26.892Z,5.73
2018-07-27T13:41:54.540Z,5.10
2018-07-27T13:44:22.140Z,5.23
2018-07-27T13:46:49.931Z,5.20
2018-07-27T13:49:17.594Z,5.30
2018-07-27T13:51:45.243Z,5.07
2018-07-27T13:54:12.874Z,5.40
2018-07-27T13:56:40.504Z,5.60
2018-07-27T13:59:08.142Z,4.67
2018-07-27T14:01:35.803Z,4.83
2018-07-27T14:04:03.466Z,5.70
2018-07-27T14:06:31.236Z,5.03
2018-07-27T14:08:58.887Z,6.00
2018-07-27T14:11:26.610Z,5.80
2018-07-27T14:13:54.288Z,5.40
2018-07-27T14:16:21.944Z,6.00
2018-07-27T14:18:49.639Z,4.77
2018-07-27T14:21:17.304Z,5.97
2018-07-27T14:23:44.974Z,5.57
2018-07-27T14:26:12.543Z,5.90
2018-07-27T14:28:40.213Z,5.27
2018-07-27T14:31:08.075Z,5.23
2018-07-27T14:33:35.739Z,5.53
2018-07-27T14:36:03.303Z,5.37
2018-07-27T14:38:30.936Z,5.33
2018-07-27T14:40:58.656Z,5.63
2018-07-27T14:43:26.259Z,5.00
2018-07-27T14:45:53.855Z,6.03
2018-07-27T14:48:21.481Z,5.30
2018-07-27T14:50:49.141Z,4.70
2018-07-27T14:53:16.748Z,5.00
2018-07-27T14:55:44.325Z,5.33
2018-07-27T14:58:11.992Z,5.53
2018-07-27T15:00:39.598Z,4.70
2018-07-27T15:03:07.261Z,4.73
2018-07-27T15:05:34.888Z,5.00
2018-07-27T15:08:02.595Z,5.60
2018-07-27T15:10:30.227Z,5.60
2018-07-27T15:12:57.771Z,5.63
2018-07-27T15:15:25.440Z,5.57
2018-07-27T15:17:53.153Z,5.10
2018-07-27T15:20:20.860Z,5.57
2018-07-27T15:22:48.462Z,5.23
2018-07-27T15:25:16.026Z,5.87
2018-07-27T15:27:44.699Z,5.77
2018-07-27T15:30:12.340Z,5.10
2018-07-27T15:32:39.932Z,5.23
2018-07-27T15:35:07.578Z,5.90
2018-07-27T15:37:35.240Z,5.37
2018-07-27T15:40:03.004Z,5.73
2018-07-27T15:42:30.639Z,5.50
2018-07-27T15:44:58.318Z,5.30
2018-07-27T15:47:25.940Z,5.90
2018-07-27T15:49:53.547Z,5.70
2018-07-27T15:52:21.187Z,5.60
2018-07-27T15:54:48.817Z,5.90
2018-07-27T15:57:16.511Z,4.80
2018-07-27T15:59:44.139Z,5.20
2018-07-27T16:02:11.844Z,5.17
2018-07-27T16:04:39.633Z,5.30
2018-07-27T16:07:07.294Z,4.80
2018-07-27T16:09:34.926Z,4.57
2018-07-27T16:12:02.641Z,5.20
2018-07-27T16:14:30.543Z,5.03
2018-07-27T16:16:58.163Z,4.70
2018-07-27T16:19:27.845Z,5.10
2018-07-27T16:21:56.065Z,5.70
2018-07-27T16:24:23.775Z,5.13
2018-07-27T16:26:51.431Z,4.70
2018-07-27T16:29:19.089Z,5.40
2018-07-27T16:31:46.698Z,5.20
2018-07-27T16:34:14.276Z,5.10
2018-07-27T16:36:41.960Z,4.90
2018-07-27T16:39:10.422Z,4.50
2018-07-27T16:41:38.135Z,5.30
2018-07-27T16:44:05.991Z,5.10
2018-07-27T16:46:33.646Z,5.30
2018-07-27T16:49:01.428Z,4.53
2018-07-27T16:51:29.120Z,4.90
2018-07-27T16:53:56.732Z,5.03
2018-07-27T16:56:24.357Z,5.23
2018-07-27T16:58:52.040Z,5.47
2018-07-27T17:01:19.663Z,5.47
2018-07-27T17:03:47.231Z,5.00
2018-07-27T17:06:15.008Z,5.90
2018-07-27T17:08:42.566Z,4.80
2018-07-27T17:11:10.225Z,5.70
2018-07-27T17:13:37.888Z,5.00
2018-07-27T17:16:05.624Z,5.23
2018-07-27T17:18:34.093Z,4.87
2018-07-27T17:21:01.844Z,4.90
2018-07-27T17:23:29.452Z,6.53
2018-07-27T17:25:57.885Z,5.13
2018-07-27T17:28:25.541Z,5.23
2018-07-27T17:30:54.014Z,5.60
2018-07-27T17:33:21.646Z,5.47
2018-07-27T17:35:49.293Z,4.90
2018-07-27T17:38:17.099Z,4.97
2018-07-27T17:40:44.792Z,5.50
2018-07-27T17:43:12.403Z,5.50
2018-07-27T17:45:40.011Z,4.93
2018-07-27T17:48:07.651Z,5.57
2018-07-27T17:50:35.261Z,5.37
2018-07-27T17:53:02.913Z,5.23
2018-07-27T17:55:30.574Z,5.20
2018-07-27T17:57:58.281Z,5.60
2018-07-27T18:00:25.997Z,5.77
2018-07-27T18:02:53.852Z,5.67
2018-07-27T18:05:21.616Z,5.20
2018-07-27T18:07:49.288Z,5.47
2018-07-27T18:10:16.977Z,5.27
2018-07-27T18:12:44.651Z,5.93
2018-07-27T18:15:12.311Z,5.70
2018-07-27T18:17:39.971Z,6.17
2018-07-27T18:20:09.349Z,5.90
2018-07-27T18:22:37.126Z,5.80
2018-07-27T18:25:08.356Z,5.90
2018-07-27T18:27:35.987Z,4.60
2018-07-27T18:30:04.718Z,5.53
2018-07-27T18:32:32.414Z,5.70
2018-07-27T18:35:00.168Z,5.57
2018-07-27T18:37:27.800Z,5.80
2018-07-27T18:39:55.451Z,5.67
2018-07-27T18:42:23.226Z,6.43
2018-07-27T18:44:50.910Z,6.07
2018-07-27T18:47:18.622Z,6.30
2018-07-27T18:49:46.325Z,6.20
2018-07-27T18:52:14.027Z,5.87
2018-07-27T18:54:41.677Z,5.50
2018-07-27T18:57:09.717Z,6.40
2018-07-27T18:59:37.318Z,6.10
2018-07-27T19:02:04.953Z,5.90
2018-07-27T19:04:32.600Z,6.93
2018-07-27T19:07:00.284Z,6.07
2018-07-27T19:09:27.942Z,5.27
2018-07-27T19:11:55.605Z,6.83
2018-07-27T19:14:23.330Z,6.00
2018-07-27T19:16:50.992Z,6.90
2018-07-27T19:19:18.747Z,6.77
2018-07-27T19:21:46.417Z,6.10
2018-07-27T19:24:14.048Z,6.20
2018-07-27T19:26:41.829Z,6.50
2018-07-27T19:29:09.508Z,7.17
2018-07-27T19:31:37.140Z,6.53
2018-07-27T19:34:04.870Z,6.60
2018-07-27T19:36:39.182Z,6.87
2018-07-27T19:39:08.749Z,6.60
2018-07-27T19:41:36.433Z,6.90
2018-07-27T19:44:04.137Z,7.30
2018-07-27T19:46:31.752Z,6.80
2018-07-27T19:49:04.462Z,7.20
2018-07-27T19:51:33.179Z,7.10
2018-07-27T19:54:00.803Z,7.50
2018-07-27T19:56:28.446Z,7.53
2018-07-27T19:58:56.185Z,8.00
2018-07-27T20:01:23.923Z,8.00
2018-07-27T20:03:51.549Z,7.60
2018-07-27T20:06:19.244Z,7.30
2018-07-27T20:08:48.036Z,6.43
2018-07-27T20:11:15.615Z,7.30
2018-07-27T20:13:43.322Z,7.27
2018-07-27T20:16:10.958Z,7.70
2018-07-27T20:18:38.605Z,7.50
2018-07-27T20:21:06.255Z,8.00
2018-07-27T20:23:33.880Z,8.03
2018-07-27T20:26:01.506Z,8.10
2018-07-27T20:28:29.193Z,8.83
2018-07-27T20:30:57.798Z,8.13
2018-07-27T20:33:25.434Z,7.93
2018-07-27T20:35:53.480Z,8.30
2018-07-27T20:38:21.171Z,7.70
2018-07-27T20:40:48.776Z,8.10
2018-07-27T20:43:16.431Z,8.50
2018-07-27T20:45:44.044Z,8.77
2018-07-27T20:48:11.716Z,8.50
2018-07-27T20:50:39.418Z,9.20
2018-07-27T20:55:41.805Z,8.90
2018-07-27T20:58:09.887Z,8.20
2018-07-27T21:00:37.545Z,8.37
2018-07-27T21:03:05.226Z,8.80
2018-07-27T21:05:32.883Z,8.30
2018-07-27T21:08:00.538Z,8.20
2018-07-27T21:10:28.168Z,9.10
2018-07-27T21:12:55.822Z,9.30
2018-07-27T21:15:23.451Z,9.30
2018-07-27T21:17:51.082Z,8.77
2018-07-27T21:20:18.759Z,9.30
2018-07-27T21:22:46.312Z,10.27
2018-07-27T21:25:13.918Z,10.03
2018-07-27T21:27:41.574Z,10.40
2018-07-27T21:30:09.252Z,10.40
2018-07-27T21:32:36.852Z,10.10
2018-07-27T21:35:04.472Z,10.87
2018-07-27T21:37:32.110Z,10.77
2018-07-27T21:39:59.705Z,10.73
2018-07-27T21:42:27.257Z,11.00
2018-07-27T21:44:54.895Z,11.53
2018-07-27T21:47:22.493Z,11.40
2018-07-27T21:49:50.097Z,10.23
2018-07-27T21:52:17.778Z,10.03
2018-07-27T21:54:45.330Z,11.37
2018-07-27T21:57:13.099Z,10.20
2018-07-27T21:59:40.815Z,11.57
2018-07-27T22:02:08.468Z,10.20
2018-07-27T22:04:36.115Z,10.17
2018-07-27T22:07:04.462Z,9.37
2018-07-27T22:09:32.022Z,9.47
2018-07-27T22:11:59.636Z,9.50
2018-07-27T22:14:27.306Z,9.33
2018-07-27T22:16:55.456Z,9.73
2018-07-27T22:19:23.183Z,9.80
2018-07-27T22:21:50.773Z,9.77
2018-07-27T22:24:18.343Z,9.40
2018-07-27T22:26:46.909Z,9.10
2018-07-27T22:29:14.517Z,10.13
2018-07-27T22:31:42.078Z,8.50
2018-07-27T22:34:09.638Z,9.60
2018-07-27T22:36:38.129Z,8.97
2018-07-27T22:39:07.803Z,8.27
2018-07-27T22:41:35.483Z,9.07
2018-07-27T22:44:03.873Z,9.23
2018-07-27T22:46:31.522Z,9.87
2018-07-27T22:48:59.121Z,9.70
2018-07-27T22:51:27.288Z,9.47
2018-07-27T22:53:54.919Z,9.90
2018-07-27T22:56:22.600Z,10.60
2018-07-27T22:58:50.214Z,9.40
2018-07-27T23:01:17.779Z,9.33
2018-07-27T23:03:45.375Z,8.27
2018-07-27T23:06:12.965Z,9.70
2018-07-27T23:08:40.544Z,9.90
2018-07-27T23:11:08.148Z,10.73
2018-07-27T23:13:35.746Z,10.07
2018-07-27T23:16:03.332Z,10.90
2018-07-27T23:18:30.939Z,10.47
2018-07-27T23:20:58.520Z,10.03
2018-07-27T23:23:26.135Z,10.67
2018-07-27T23:25:53.783Z,9.33
2018-07-27T23:28:21.400Z,10.90
2018-07-27T23:30:48.977Z,10.87
2018-07-27T23:33:16.614Z,11.00
2018-07-27T23:35:44.166Z,10.20
2018-07-27T23:38:12.601Z,10.60
2018-07-27T23:40:40.174Z,12.17
2018-07-27T23:43:07.715Z,11.93
2018-07-27T23:45:35.271Z,10.70
2018-07-27T23:48:02.863Z,11.03
2018-07-27T23:50:30.475Z,10.93
2018-07-27T23:52:58.066Z,11.20
2018-07-27T23:55:26.183Z,11.57
2018-07-27T23:57:53.754Z,10.80
